<?xml version="1.0" encoding="UTF-8" standalone="no" ?>
<gpx xmlns="http://www.topografix.com/GPX/1/1" xmlns:xsi="http://www.w3.org/2001/XMLSchema-instance" xsi:schemaLocation="http://www.topografix.com/GPX/1/1 http://www.topografix.com/GPX/1/1/gpx.xsd" version="1.1" creator="VisuGPX - https://www.visugpx.com">
  <metadata>
    <name>boucles beaumont</name>
    <desc><![CDATA[boucles beaumont du périgord]]></desc>
  </metadata>
  <trk>
    <name><![CDATA[BBmt22]]></name>
    <trkseg>
      <trkpt lat="44.79205" lon="0.80015">
        <ele>117</ele>
        <time>2008-12-18T13:35:58Z</time>
      </trkpt>
      <trkpt lat="44.7921" lon="0.80043">
        <ele>122</ele>
        <time>2008-12-18T13:38:54Z</time>
      </trkpt>
      <trkpt lat="44.7922" lon="0.80065">
        <ele>119</ele>
        <time>2008-12-18T13:38:59Z</time>
      </trkpt>
      <trkpt lat="44.79225" lon="0.80093">
        <ele>115</ele>
        <time>2008-12-18T13:39:05Z</time>
      </trkpt>
      <trkpt lat="44.79223" lon="0.8012">
        <ele>112</ele>
        <time>2008-12-18T13:39:14Z</time>
      </trkpt>
      <trkpt lat="44.79223" lon="0.8015">
        <ele>109</ele>
        <time>2008-12-18T13:39:25Z</time>
      </trkpt>
      <trkpt lat="44.79214" lon="0.80168">
        <ele>110</ele>
        <time>2008-12-18T13:40:10Z</time>
      </trkpt>
      <trkpt lat="44.79209" lon="0.80181">
        <ele>109</ele>
        <time>2008-12-18T13:40:17Z</time>
      </trkpt>
      <trkpt lat="44.79209" lon="0.80187">
        <ele>109</ele>
        <time>2008-12-18T13:40:22Z</time>
      </trkpt>
      <trkpt lat="44.79208" lon="0.80197">
        <ele>109</ele>
        <time>2008-12-18T13:40:51Z</time>
      </trkpt>
      <trkpt lat="44.79205" lon="0.80205">
        <ele>109</ele>
        <time>2008-12-18T13:41:18Z</time>
      </trkpt>
      <trkpt lat="44.79204" lon="0.80212">
        <ele>109</ele>
        <time>2008-12-18T13:41:23Z</time>
      </trkpt>
      <trkpt lat="44.79202" lon="0.8023">
        <ele>109</ele>
        <time>2008-12-18T13:41:30Z</time>
      </trkpt>
      <trkpt lat="44.79084" lon="0.8047">
        <ele>119</ele>
        <time>2009-06-18T16:43:36Z</time>
      </trkpt>
      <trkpt lat="44.78851" lon="0.80732">
        <ele>119</ele>
        <time>2009-06-18T16:43:36Z</time>
      </trkpt>
      <trkpt lat="44.78745" lon="0.80868">
        <ele>124</ele>
        <time>2009-06-18T16:43:36Z</time>
      </trkpt>
      <trkpt lat="44.7862" lon="0.80863">
        <ele>150</ele>
        <time>2008-12-18T13:55:08Z</time>
      </trkpt>
      <trkpt lat="44.78605" lon="0.80878">
        <ele>135</ele>
        <time>2008-12-18T13:55:27Z</time>
      </trkpt>
      <trkpt lat="44.7859" lon="0.80893">
        <ele>130</ele>
        <time>2008-12-18T13:55:45Z</time>
      </trkpt>
      <trkpt lat="44.78578" lon="0.80915">
        <ele>133</ele>
        <time>2008-12-18T13:55:59Z</time>
      </trkpt>
      <trkpt lat="44.78568" lon="0.8094">
        <ele>136</ele>
        <time>2008-12-18T13:56:08Z</time>
      </trkpt>
      <trkpt lat="44.78555" lon="0.80963">
        <ele>137</ele>
        <time>2008-12-18T13:56:26Z</time>
      </trkpt>
      <trkpt lat="44.78538" lon="0.8097">
        <ele>135</ele>
        <time>2008-12-18T13:56:40Z</time>
      </trkpt>
      <trkpt lat="44.78523" lon="0.80985">
        <ele>133</ele>
        <time>2008-12-18T13:56:56Z</time>
      </trkpt>
      <trkpt lat="44.78505" lon="0.80995">
        <ele>135</ele>
        <time>2008-12-18T13:57:09Z</time>
      </trkpt>
      <trkpt lat="44.78488" lon="0.81005">
        <ele>133</ele>
        <time>2008-12-18T13:57:24Z</time>
      </trkpt>
      <trkpt lat="44.7847" lon="0.8102">
        <ele>129</ele>
        <time>2008-12-18T13:57:37Z</time>
      </trkpt>
      <trkpt lat="44.78463" lon="0.81045">
        <ele>128</ele>
        <time>2008-12-18T13:57:54Z</time>
      </trkpt>
      <trkpt lat="44.7845" lon="0.81065">
        <ele>131</ele>
        <time>2008-12-18T13:58:07Z</time>
      </trkpt>
      <trkpt lat="44.78435" lon="0.8108">
        <ele>133</ele>
        <time>2008-12-18T13:58:18Z</time>
      </trkpt>
      <trkpt lat="44.78423" lon="0.811">
        <ele>137</ele>
        <time>2008-12-18T13:58:33Z</time>
      </trkpt>
      <trkpt lat="44.78408" lon="0.81118">
        <ele>142</ele>
        <time>2008-12-18T13:58:47Z</time>
      </trkpt>
      <trkpt lat="44.7839" lon="0.8113">
        <ele>139</ele>
        <time>2008-12-18T13:59:04Z</time>
      </trkpt>
      <trkpt lat="44.78383" lon="0.81155">
        <ele>139</ele>
        <time>2008-12-18T13:59:22Z</time>
      </trkpt>
      <trkpt lat="44.78373" lon="0.81178">
        <ele>140</ele>
        <time>2008-12-18T13:59:40Z</time>
      </trkpt>
      <trkpt lat="44.78355" lon="0.81193">
        <ele>141</ele>
        <time>2008-12-18T13:59:59Z</time>
      </trkpt>
      <trkpt lat="44.78338" lon="0.81203">
        <ele>149</ele>
        <time>2008-12-18T14:00:32Z</time>
      </trkpt>
      <trkpt lat="44.7832" lon="0.81215">
        <ele>149</ele>
        <time>2008-12-18T14:00:40Z</time>
      </trkpt>
      <trkpt lat="44.78303" lon="0.81228">
        <ele>150</ele>
        <time>2008-12-18T14:00:49Z</time>
      </trkpt>
      <trkpt lat="44.78288" lon="0.8121">
        <ele>156</ele>
        <time>2008-12-18T14:00:58Z</time>
      </trkpt>
      <trkpt lat="44.78273" lon="0.81193">
        <ele>159</ele>
        <time>2008-12-18T14:01:03Z</time>
      </trkpt>
      <trkpt lat="44.78258" lon="0.81175">
        <ele>160</ele>
        <time>2008-12-18T14:01:08Z</time>
      </trkpt>
      <trkpt lat="44.78243" lon="0.8116">
        <ele>161</ele>
        <time>2008-12-18T14:01:12Z</time>
      </trkpt>
      <trkpt lat="44.78228" lon="0.8114">
        <ele>165</ele>
        <time>2008-12-18T14:01:19Z</time>
      </trkpt>
      <trkpt lat="44.78208" lon="0.81128">
        <ele>170</ele>
        <time>2008-12-18T14:01:32Z</time>
      </trkpt>
      <trkpt lat="44.7819" lon="0.81113">
        <ele>168</ele>
        <time>2008-12-18T14:01:37Z</time>
      </trkpt>
      <trkpt lat="44.78175" lon="0.81105">
        <ele>162</ele>
        <time>2008-12-18T15:23:48Z</time>
      </trkpt>
      <trkpt lat="44.78163" lon="0.81128">
        <ele>162</ele>
        <time>2008-12-18T15:23:56Z</time>
      </trkpt>
      <trkpt lat="44.78155" lon="0.81163">
        <ele>164</ele>
        <time>2008-12-18T15:23:59Z</time>
      </trkpt>
      <trkpt lat="44.78143" lon="0.81208">
        <ele>167</ele>
        <time>2008-12-18T15:24:02Z</time>
      </trkpt>
      <trkpt lat="44.78133" lon="0.81243">
        <ele>169</ele>
        <time>2008-12-18T15:24:04Z</time>
      </trkpt>
      <trkpt lat="44.78115" lon="0.81288">
        <ele>170</ele>
        <time>2008-12-18T15:24:07Z</time>
      </trkpt>
      <trkpt lat="44.78103" lon="0.8133">
        <ele>171</ele>
        <time>2008-12-18T15:24:10Z</time>
      </trkpt>
      <trkpt lat="44.78095" lon="0.81355">
        <ele>171</ele>
        <time>2008-12-18T15:24:13Z</time>
      </trkpt>
      <trkpt lat="44.7808" lon="0.81375">
        <ele>172</ele>
        <time>2008-12-18T15:24:22Z</time>
      </trkpt>
      <trkpt lat="44.7806" lon="0.8139">
        <ele>172</ele>
        <time>2008-12-18T15:24:26Z</time>
      </trkpt>
      <trkpt lat="44.7804" lon="0.81405">
        <ele>170</ele>
        <time>2008-12-18T15:24:32Z</time>
      </trkpt>
      <trkpt lat="44.78023" lon="0.81418">
        <ele>169</ele>
        <time>2008-12-18T15:24:35Z</time>
      </trkpt>
      <trkpt lat="44.78005" lon="0.81428">
        <ele>167</ele>
        <time>2008-12-18T15:24:37Z</time>
      </trkpt>
      <trkpt lat="44.77988" lon="0.81438">
        <ele>163</ele>
        <time>2008-12-18T15:24:39Z</time>
      </trkpt>
      <trkpt lat="44.7797" lon="0.81445">
        <ele>161</ele>
        <time>2008-12-18T15:24:41Z</time>
      </trkpt>
      <trkpt lat="44.77945" lon="0.8146">
        <ele>159</ele>
        <time>2008-12-18T15:24:44Z</time>
      </trkpt>
      <trkpt lat="44.77925" lon="0.81468">
        <ele>157</ele>
        <time>2008-12-18T15:24:46Z</time>
      </trkpt>
      <trkpt lat="44.779" lon="0.81483">
        <ele>157</ele>
        <time>2008-12-18T15:24:49Z</time>
      </trkpt>
      <trkpt lat="44.77885" lon="0.81498">
        <ele>157</ele>
        <time>2008-12-18T15:24:51Z</time>
      </trkpt>
      <trkpt lat="44.7787" lon="0.81515">
        <ele>158</ele>
        <time>2008-12-18T15:24:53Z</time>
      </trkpt>
      <trkpt lat="44.77845" lon="0.81543">
        <ele>158</ele>
        <time>2008-12-18T15:24:56Z</time>
      </trkpt>
      <trkpt lat="44.77828" lon="0.81558">
        <ele>158</ele>
        <time>2008-12-18T15:24:58Z</time>
      </trkpt>
      <trkpt lat="44.7781" lon="0.81575">
        <ele>157</ele>
        <time>2008-12-18T15:25:00Z</time>
      </trkpt>
      <trkpt lat="44.77793" lon="0.81595">
        <ele>157</ele>
        <time>2008-12-18T15:25:03Z</time>
      </trkpt>
    </trkseg>
  </trk>
</gpx>